Time;durP1;ratioP1;P1;durP2;ratioP2;P2;SDS_P1;SDS_P2;PMS_P1;PMS_P2;Temp;Humidity;BMP_temperature;BMP_pressure;BME280_temperature;BME280_humidity;BME280_pressure;Samples;Min_cycle;Max_cycle;Signal;HPM_P1;HPM_P2
2023/04/26 00:01:04;;;;;;;8.40;4.90;;;7.30;99.80;;;10.55;52.06;97648.53;5051670;28;20048;-44
2023/04/26 00:03:31;;;;;;;7.03;4.53;;;7.30;98.60;;;10.52;51.99;97654.97;5059512;28;20516;-43
2023/04/26 00:06:07;;;;;;;6.53;5.07;;;7.20;99.00;;;10.48;52.38;97653.63;5061277;28;20048;-42
2023/04/26 00:08:35;;;;;;;6.93;4.67;;;7.20;99.90;;;10.52;51.81;97651.50;5062594;28;20538;-44
2023/04/26 00:11:03;;;;;;;10.07;5.37;;;7.20;99.10;;;10.54;52.17;97654.81;5059200;28;20044;-44
2023/04/26 00:13:30;;;;;;;7.03;4.50;;;7.30;99.30;;;10.54;51.88;97652.16;5059833;28;20422;-43
2023/04/26 00:15:58;;;;;;;8.37;5.07;;;7.20;98.80;;;10.47;51.80;97659.97;5048757;28;20414;-44
2023/04/26 00:18:26;;;;;;;10.50;4.70;;;7.20;99.10;;;10.38;51.87;97667.06;5059276;28;20057;-43
2023/04/26 00:20:53;;;;;;;6.97;4.83;;;7.10;99.60;;;10.33;52.33;97668.53;5062389;28;20041;-43
2023/04/26 00:23:21;;;;;;;7.23;4.87;;;7.00;99.90;;;10.29;52.40;97669.81;5062862;28;20051;-42
2023/04/26 00:25:48;;;;;;;8.77;5.30;;;7.00;99.90;;;10.29;52.55;97661.84;5060098;28;20052;-45
2023/04/26 00:28:16;;;;;;;7.13;4.90;;;6.90;99.90;;;10.28;52.35;97662.84;5059709;28;20032;-42
2023/04/26 00:30:47;;;;;;;7.97;4.50;;;6.90;99.90;;;10.24;52.59;97663.16;5060599;28;20056;-44
2023/04/26 00:33:15;;;;;;;9.37;5.70;;;6.90;99.90;;;10.19;52.42;97670.75;5061376;28;20040;-43
2023/04/26 00:35:42;;;;;;;8.70;5.53;;;6.90;99.90;;;10.17;52.46;97669.25;5059288;28;20505;-43
2023/04/26 00:38:10;;;;;;;8.30;4.73;;;6.80;99.90;;;10.14;52.67;97666.91;5059221;28;20052;-43
2023/04/26 00:40:37;;;;;;;8.10;5.00;;;6.80;99.90;;;10.11;52.60;97668.06;5057549;28;20076;-44
2023/04/26 00:43:05;;;;;;;7.33;4.97;;;6.80;99.90;;;10.14;52.46;97664.25;5062732;28;20052;-44
2023/04/26 00:45:34;;;;;;;7.57;5.00;;;6.80;99.90;;;10.12;52.83;97668.88;5062251;28;20505;-43
2023/04/26 00:48:02;;;;;;;9.33;5.00;;;6.80;99.90;;;10.13;52.35;97668.75;5059183;28;20071;-44
2023/04/26 00:50:31;;;;;;;9.67;5.00;;;6.80;99.90;;;10.13;52.72;97666.06;5057626;28;20505;-44
2023/04/26 00:53:01;;;;;;;10.93;5.00;;;6.80;99.90;;;10.13;52.36;97663.41;5057440;28;20041;-44
2023/04/26 00:55:28;;;;;;;7.47;4.83;;;6.80;99.90;;;10.02;52.50;97669.84;5057275;28;20041;-45
2023/04/26 00:57:56;;;;;;;7.70;4.67;;;6.70;99.90;;;9.99;52.72;97664.84;5051836;28;20067;-44
2023/04/26 01:00:24;;;;;;;10.50;5.43;;;6.70;99.90;;;10.01;52.27;97664.69;5062407;28;20522;-43
2023/04/26 01:02:52;;;;;;;12.03;6.23;;;6.70;99.90;;;10.01;52.12;97670.81;5058553;28;20498;-44
2023/04/26 01:05:20;;;;;;;10.33;5.17;;;6.70;99.90;;;9.99;52.22;97666.66;5057810;28;20045;-44
2023/04/26 01:07:48;;;;;;;13.80;5.23;;;6.70;99.90;;;9.98;52.32;97670.31;5041103;28;20061;-44
2023/04/26 01:10:16;;;;;;;7.70;5.50;;;6.70;99.90;;;9.93;52.12;97669.97;5061235;28;20052;-46
2023/04/26 01:12:44;;;;;;;11.33;5.33;;;6.60;99.20;;;9.81;52.31;97664.06;5042361;28;20056;-44
2023/04/26 01:15:12;;;;;;;9.53;6.03;;;6.50;99.90;;;9.79;52.52;97666.88;5056964;28;20041;-44
2023/04/26 01:17:39;;;;;;;12.47;6.40;;;6.50;99.90;;;9.74;52.38;97663.84;5056805;28;20045;-43
2023/04/26 01:20:09;;;;;;;8.63;5.50;;;6.40;99.90;;;9.74;52.61;97666.50;5062266;28;20039;-44
2023/04/26 01:22:36;;;;;;;9.50;6.40;;;6.40;99.90;;;9.74;52.49;97665.66;5060213;28;20083;-44
2023/04/26 01:25:08;;;;;;;8.97;5.33;;;6.50;99.90;;;9.71;52.67;97666.78;5058341;28;20147;-44
2023/04/26 01:27:35;;;;;;;11.20;5.70;;;6.40;99.90;;;9.71;52.45;97658.00;5057103;28;20056;-44
2023/04/26 01:30:03;;;;;;;8.80;4.90;;;6.50;99.90;;;9.67;52.77;97660.13;5062183;28;20413;-44
2023/04/26 01:32:31;;;;;;;7.27;5.50;;;6.50;99.90;;;9.65;52.69;97659.44;5060343;28;20052;-44
2023/04/26 01:34:59;;;;;;;9.07;5.80;;;6.30;99.90;;;9.62;52.67;97663.25;5058691;28;20490;-45
2023/04/26 01:37:27;;;;;;;8.67;7.00;;;6.30;99.90;;;9.60;52.98;97667.91;5037327;28;20061;-45
2023/04/26 01:39:59;;;;;;;9.00;5.50;;;6.30;99.90;;;9.61;52.96;97658.91;5061358;28;20414;-44
2023/04/26 01:42:26;;;;;;;10.93;5.13;;;6.30;99.90;;;9.58;53.01;97656.59;5060071;28;20052;-44
2023/04/26 01:44:54;;;;;;;9.73;6.13;;;6.30;99.90;;;9.59;53.11;97655.59;5059448;28;20402;-46
2023/04/26 01:47:21;;;;;;;6.67;5.10;;;6.30;99.90;;;9.59;53.13;97654.75;5056665;28;20052;-45
2023/04/26 01:49:49;;;;;;;7.43;5.87;;;6.30;99.90;;;9.61;53.34;97653.59;5058466;28;20080;-43
2023/04/26 01:52:17;;;;;;;10.40;5.83;;;6.20;99.90;;;9.63;53.05;97659.63;5061254;28;20047;-44
2023/04/26 01:54:45;;;;;;;9.27;6.67;;;6.20;99.90;;;9.64;53.12;97663.94;5059285;28;20040;-44
2023/04/26 01:57:13;;;;;;;11.37;6.47;;;6.30;99.90;;;9.67;53.21;97657.47;5057099;28;20040;-44
2023/04/26 01:59:40;;;;;;;9.90;5.90;;;6.30;99.90;;;9.66;53.07;97651.31;5046263;28;20528;-44
2023/04/26 02:02:08;;;;;;;8.27;6.40;;;6.30;99.90;;;9.71;53.27;97653.50;5060513;28;20421;-44
2023/04/26 02:04:37;;;;;;;10.83;7.13;;;6.40;99.90;;;9.71;53.47;97652.69;5060440;28;20052;-46
2023/04/26 02:07:05;;;;;;;11.93;7.73;;;6.40;99.90;;;9.68;53.82;97656.50;5056968;28;20041;-44
2023/04/26 02:09:33;;;;;;;14.47;8.33;;;6.40;99.90;;;9.46;54.62;97652.50;5059332;28;20049;-44
2023/04/26 02:12:01;;;;;;;15.20;8.57;;;6.30;99.90;;;9.45;54.75;97656.16;5063673;28;20044;-44
2023/04/26 02:14:29;;;;;;;11.53;8.40;;;6.30;99.90;;;9.52;54.67;97648.38;5065425;28;20037;-44
2023/04/26 02:16:57;;;;;;;17.20;7.73;;;6.20;99.90;;;9.53;54.80;97652.72;5060390;28;20048;-44
2023/04/26 02:19:25;;;;;;;17.43;11.20;;;6.30;99.90;;;9.40;55.23;97659.28;5059421;28;20506;-43
2023/04/26 02:21:56;;;;;;;16.23;8.93;;;6.10;99.90;;;9.43;54.92;97663.44;5061490;28;20049;-44
2023/04/26 02:24:24;;;;;;;16.77;8.60;;;6.10;99.90;;;9.46;55.17;97658.66;5063901;28;20047;-43
2023/04/26 02:26:53;;;;;;;11.90;8.37;;;6.10;99.90;;;9.41;55.26;97660.94;5061685;28;20437;-44
2023/04/26 02:29:20;;;;;;;10.43;7.17;;;6.10;99.90;;;9.36;55.25;97665.03;5059829;28;20426;-44
2023/04/26 02:32:08;;;;;;;11.13;7.30;;;6.00;99.90;;;9.29;55.52;97667.47;5060232;28;20049;-44
2023/04/26 02:34:36;;;;;;;11.83;7.37;;;5.90;99.90;;;9.23;55.30;97660.13;5059586;28;20053;-44
2023/04/26 02:37:04;;;;;;;16.33;9.37;;;5.90;99.90;;;9.18;55.18;97662.38;5062788;28;20529;-43
2023/04/26 02:39:32;;;;;;;39.30;12.30;;;5.80;99.90;;;9.04;56.59;97672.53;5059594;28;20441;-43
2023/04/26 02:41:59;;;;;;;40.57;11.73;;;5.70;99.90;;;9.07;56.41;97666.94;5062652;28;20056;-43
2023/04/26 02:44:30;;;;;;;39.03;13.17;;;5.60;99.90;;;9.05;56.69;97673.38;5062794;28;20045;-44
2023/04/26 02:46:58;;;;;;;30.93;13.30;;;5.70;99.90;;;9.07;56.78;97661.63;5060324;28;20517;-43
2023/04/26 02:49:25;;;;;;;96.10;14.80;;;5.70;99.90;;;9.06;56.84;97662.59;5059509;28;20049;-43
2023/04/26 02:51:53;;;;;;;24.13;11.37;;;5.70;99.90;;;9.05;56.85;97666.25;5061143;28;20052;-44
2023/04/26 02:54:21;;;;;;;28.70;12.27;;;5.70;99.90;;;9.04;57.08;97667.25;5046280;28;20616;-45
2023/04/26 02:56:49;;;;;;;25.83;11.57;;;5.70;99.90;;;9.03;57.14;97667.38;5061258;28;20055;-43
2023/04/26 02:59:16;;;;;;;34.97;12.17;;;5.60;99.90;;;9.02;56.98;97663.91;5039745;28;20518;-43
2023/04/26 03:01:44;;;;;;;31.40;13.63;;;5.60;99.90;;;9.02;57.13;97665.72;5073612;28;20064;-43
2023/04/26 03:04:12;;;;;;;23.43;11.83;;;5.60;99.90;;;8.98;56.95;97667.84;5062788;28;20052;-43
2023/04/26 03:06:40;;;;;;;20.10;11.47;;;5.60;99.90;;;8.87;57.37;97670.72;5063065;28;20059;-45
2023/04/26 03:09:07;;;;;;;21.10;12.50;;;5.50;99.90;;;8.86;57.09;97661.09;5051890;28;20502;-45
2023/04/26 03:11:35;;;;;;;21.00;11.50;;;5.50;99.90;;;8.86;57.10;97669.88;5042839;28;20049;-45
2023/04/26 03:14:03;;;;;;;17.90;11.43;;;5.50;99.90;;;8.81;57.59;97663.34;5062044;28;20049;-45
2023/04/26 03:16:30;;;;;;;17.57;11.17;;;5.50;99.90;;;8.76;57.71;97665.59;5058780;28;20426;-48
2023/04/26 03:18:58;;;;;;;20.00;11.80;;;5.40;99.90;;;8.80;57.54;97662.53;5060694;28;20055;-50
2023/04/26 03:21:26;;;;;;;18.13;11.53;;;5.50;99.90;;;8.80;57.42;97665.19;5058867;28;20049;-45
2023/04/26 03:23:54;;;;;;;17.80;11.03;;;5.50;99.90;;;8.80;57.50;97665.19;5062436;28;20037;-46
2023/04/26 03:26:22;;;;;;;18.03;10.70;;;5.50;99.90;;;8.84;57.34;97668.34;5061972;28;20049;-44
2023/04/26 03:28:50;;;;;;;17.77;9.67;;;5.50;99.90;;;8.73;57.44;97672.06;5061215;28;20052;-44
2023/04/26 03:31:20;;;;;;;18.70;11.33;;;5.40;99.90;;;8.75;57.21;97670.09;5058335;28;20045;-46
2023/04/26 03:33:48;;;;;;;21.97;11.10;;;5.40;99.90;;;8.69;57.46;97670.69;5059167;28;20049;-44
2023/04/26 03:36:16;;;;;;;17.10;10.47;;;5.40;99.90;;;8.69;57.65;97667.22;5061973;28;20048;-45
2023/04/26 03:38:44;;;;;;;17.73;10.87;;;5.40;99.90;;;8.73;57.23;97664.09;5061879;28;20049;-46
2023/04/26 03:41:13;;;;;;;18.77;12.07;;;5.40;99.90;;;8.74;57.30;97663.09;5058512;28;20525;-45
2023/04/26 03:43:40;;;;;;;15.30;9.90;;;5.40;99.90;;;8.78;57.04;97656.53;5039332;28;20053;-45
2023/04/26 03:46:08;;;;;;;16.63;10.90;;;5.50;99.90;;;8.74;57.12;97655.13;5060894;28;20524;-44
2023/04/26 03:48:35;;;;;;;38.60;11.53;;;5.40;99.90;;;8.76;57.35;97655.00;5063456;28;20075;-46
2023/04/26 03:51:03;;;;;;;17.87;10.27;;;5.40;99.90;;;8.74;57.00;97662.25;5060538;28;20048;-44
2023/04/26 03:53:32;;;;;;;17.43;9.63;;;5.40;99.90;;;8.75;57.13;97659.47;5059971;28;20048;-43
2023/04/26 03:55:59;;;;;;;18.57;10.57;;;5.40;99.90;;;8.77;57.25;97667.28;5059968;28;20525;-45
2023/04/26 03:58:27;;;;;;;15.40;9.83;;;5.40;99.90;;;8.79;57.12;97666.16;5061401;28;20049;-44
2023/04/26 04:00:57;;;;;;;17.50;10.33;;;5.40;99.90;;;8.84;56.82;97673.66;5061756;28;20045;-44
2023/04/26 04:03:24;;;;;;;17.20;10.53;;;5.40;99.90;;;8.84;56.88;97663.88;5059820;28;20037;-45
2023/04/26 04:05:52;;;;;;;19.57;10.50;;;5.40;99.90;;;8.84;56.63;97671.84;5059373;28;20059;-43
2023/04/26 04:08:20;;;;;;;19.30;10.43;;;5.40;99.90;;;8.84;56.64;97669.19;5061037;28;20425;-44
2023/04/26 04:10:48;;;;;;;19.97;10.07;;;5.40;99.90;;;8.84;56.51;97666.53;5060816;28;20079;-47
2023/04/26 04:13:15;;;;;;;18.07;10.77;;;5.50;99.90;;;8.80;56.74;97669.63;5057858;28;20049;-46
2023/04/26 04:15:43;;;;;;;17.23;9.47;;;5.30;99.90;;;8.71;56.91;97655.44;5057950;28;20041;-44
2023/04/26 04:18:10;;;;;;;15.70;9.93;;;5.30;99.90;;;8.67;56.98;97662.88;5057234;28;20041;-44
2023/04/26 04:20:40;;;;;;;17.27;10.30;;;5.20;99.90;;;8.71;57.01;97658.09;5058280;28;20045;-44
2023/04/26 04:23:08;;;;;;;16.57;9.93;;;5.30;99.90;;;8.73;56.95;97661.44;5065833;28;20033;-44
2023/04/26 04:25:38;;;;;;;16.63;10.60;;;5.30;99.90;;;8.71;57.02;97665.25;5057164;28;20429;-44
2023/04/26 04:28:08;;;;;;;20.37;12.13;;;5.30;99.90;;;8.71;57.19;97667.91;5077467;28;20044;-46
2023/04/26 04:30:36;;;;;;;21.33;11.90;;;5.30;99.90;;;8.67;57.35;97664.69;5061442;28;20048;-44
2023/04/26 04:33:04;;;;;;;20.07;10.93;;;5.30;99.90;;;8.68;57.21;97666.34;5057970;28;20052;-45
2023/04/26 04:35:34;;;;;;;21.57;10.77;;;5.30;99.90;;;8.70;57.33;97668.88;5057436;28;20296;-44
2023/04/26 04:38:04;;;;;;;20.20;11.87;;;5.30;99.90;;;8.68;57.29;97674.31;5060076;28;20064;-45
2023/04/26 04:40:32;;;;;;;19.30;11.27;;;5.30;99.90;;;8.66;57.47;97673.63;5060712;28;20040;-44
2023/04/26 04:43:00;;;;;;;19.67;11.17;;;5.30;99.90;;;8.58;57.75;97676.19;5059266;28;20049;-45
2023/04/26 04:45:29;;;;;;;20.37;10.70;;;5.20;99.90;;;8.55;57.80;97673.81;5057527;28;20049;-43
2023/04/26 04:47:58;;;;;;;16.77;10.47;;;5.20;99.90;;;8.59;57.64;97676.06;5058965;28;20053;-44
2023/04/26 04:50:27;;;;;;;18.53;11.30;;;5.20;99.90;;;8.62;57.82;97675.72;5061160;28;20048;-44
2023/04/26 04:52:55;;;;;;;16.30;10.97;;;5.30;99.90;;;8.63;57.94;97679.25;5059343;28;20052;-44
2023/04/26 04:55:22;;;;;;;19.87;10.30;;;5.30;99.90;;;8.64;57.61;97676.41;5056932;28;20045;-44
2023/04/26 04:57:51;;;;;;;16.03;10.40;;;5.30;99.90;;;8.71;57.81;97683.81;5057251;28;20049;-44
2023/04/26 05:00:20;;;;;;;19.97;10.57;;;5.30;99.90;;;8.75;57.54;97690.50;5060711;28;20037;-43
2023/04/26 05:02:52;;;;;;;14.40;8.90;;;5.40;99.90;;;8.78;57.47;97696.34;5060039;28;20045;-43
2023/04/26 05:05:20;;;;;;;21.33;10.63;;;5.40;99.90;;;8.77;57.31;97701.81;5057014;28;20522;-47
2023/04/26 05:07:48;;;;;;;19.20;10.50;;;5.40;99.90;;;8.79;57.32;97694.53;5056937;28;20052;-44
2023/04/26 05:10:16;;;;;;;16.63;10.13;;;5.50;99.90;;;8.82;57.13;97694.19;5049924;28;20052;-43
2023/04/26 05:12:43;;;;;;;15.70;9.50;;;5.50;99.90;;;8.82;57.32;97695.06;5056760;28;20057;-43
2023/04/26 05:15:11;;;;;;;18.57;11.10;;;5.50;99.90;;;8.82;57.39;97700.38;5059918;28;20544;-45
2023/04/26 05:17:41;;;;;;;19.03;11.47;;;5.50;99.90;;;8.83;57.31;97704.69;5059527;28;20055;-44
2023/04/26 05:20:21;;;;;;;18.90;9.83;;;5.50;99.90;;;8.79;57.33;97700.66;5050194;28;20122;-43
2023/04/26 05:22:50;;;;;;;18.80;11.00;;;5.50;99.90;;;8.78;57.43;97701.66;5057442;28;20048;-45
2023/04/26 05:25:18;;;;;;;19.20;11.57;;;5.50;99.90;;;8.80;57.35;97709.44;5060364;28;20040;-43
2023/04/26 05:27:51;;;;;;;17.13;12.27;;;5.50;99.90;;;8.75;57.47;97717.88;5060203;28;20048;-45
2023/04/26 05:30:32;;;;;;;21.07;10.53;;;5.50;99.90;;;8.77;57.50;97713.25;5057181;28;20048;-44
2023/04/26 05:33:23;;;;;;;17.93;11.60;;;5.50;99.90;;;8.81;57.56;97719.94;5033109;28;20242;-44
2023/04/26 05:36:15;;;;;;;18.13;11.40;;;5.50;99.90;;;8.83;57.59;97719.78;5056802;28;20048;-44
2023/04/26 05:38:43;;;;;;;16.50;11.93;;;5.60;99.90;;;8.90;57.49;97726.19;5057093;28;20041;-45
2023/04/26 05:41:10;;;;;;;21.33;12.67;;;5.70;99.90;;;8.91;57.69;97719.88;5060767;28;20512;-44
2023/04/26 05:43:39;;;;;;;21.37;12.60;;;5.70;99.90;;;8.96;57.54;97722.09;5060404;28;20505;-46
2023/04/26 05:46:06;;;;;;;19.73;11.50;;;5.80;99.90;;;8.98;57.56;97733.41;5060684;28;20151;-44
2023/04/26 05:48:34;;;;;;;19.70;11.40;;;5.80;99.90;;;9.00;57.56;97736.75;5060756;28;20057;-44
2023/04/26 05:51:02;;;;;;;19.27;12.10;;;5.80;99.90;;;8.93;57.63;97725.03;5061771;28;20310;-50
2023/04/26 05:53:30;;;;;;;22.73;13.60;;;5.70;99.90;;;8.95;57.44;97729.19;5064630;28;20410;-44
2023/04/26 05:55:57;;;;;;;26.67;12.03;;;5.70;99.90;;;8.99;57.56;97735.06;5062635;28;20052;-46
2023/04/26 05:58:25;;;;;;;23.23;11.83;;;5.70;99.90;;;8.94;57.47;97740.81;5060459;28;20049;-44
2023/04/26 06:00:52;;;;;;;24.23;13.43;;;5.70;99.90;;;8.94;57.66;97737.34;5049585;28;20045;-46
2023/04/26 06:03:20;;;;;;;20.83;12.20;;;5.70;99.90;;;8.97;57.51;97735.19;5065580;28;20441;-49
2023/04/26 06:05:48;;;;;;;19.93;10.93;;;5.70;99.90;;;8.95;57.64;97731.84;5063628;28;20056;-45
2023/04/26 06:08:15;;;;;;;20.73;11.13;;;5.70;99.90;;;8.99;57.49;97743.03;5060391;28;20045;-47
2023/04/26 06:10:43;;;;;;;18.27;11.67;;;5.70;99.90;;;8.97;57.85;97745.81;5062140;28;20414;-45
2023/04/26 06:13:11;;;;;;;19.87;11.87;;;5.70;99.90;;;9.01;58.04;97741.06;5062781;28;20063;-46
2023/04/26 06:15:38;;;;;;;19.07;11.67;;;5.80;99.90;;;9.03;57.99;97742.59;5050170;28;20522;-46
2023/04/26 06:18:06;;;;;;;17.73;11.13;;;5.80;99.90;;;9.01;57.98;97749.84;5074850;28;20049;-45
2023/04/26 06:20:33;;;;;;;20.43;11.30;;;5.80;99.90;;;9.00;58.12;97748.19;5065471;28;20052;-44
2023/04/26 06:23:02;;;;;;;17.13;10.17;;;5.80;99.90;;;9.05;57.93;97753.03;5061874;28;20049;-43
2023/04/26 06:25:30;;;;;;;16.60;10.63;;;5.90;99.90;;;9.08;57.83;97744.78;5061711;28;20073;-44
2023/04/26 06:27:58;;;;;;;17.50;10.57;;;5.90;99.90;;;9.16;57.90;97755.50;5043590;28;20053;-47
2023/04/26 06:30:26;;;;;;;15.20;9.53;;;6.00;99.90;;;9.21;57.57;97758.56;5059098;28;20403;-44
2023/04/26 06:32:55;;;;;;;10.77;7.70;;;6.00;99.90;;;9.33;57.08;97761.81;5059842;28;20064;-44
2023/04/26 06:35:24;;;;;;;12.80;6.73;;;6.20;99.90;;;9.38;56.44;97753.38;5063327;28;20052;-45
2023/04/26 06:37:52;;;;;;;11.60;7.80;;;6.20;99.90;;;9.46;56.43;97759.63;5063178;28;20044;-47
2023/04/26 06:40:20;;;;;;;13.97;7.73;;;6.40;99.90;;;9.49;55.69;97757.66;5064003;28;20044;-45
2023/04/26 06:42:48;;;;;;;15.50;7.53;;;6.30;99.90;;;9.49;55.82;97760.31;5048438;28;20277;-44
2023/04/26 06:45:16;;;;;;;13.90;7.73;;;6.30;99.90;;;9.51;55.71;97753.84;5064306;28;20493;-44
2023/04/26 06:47:45;;;;;;;13.87;9.37;;;6.30;99.90;;;9.57;55.70;97750.59;5063424;28;20426;-46
2023/04/26 06:50:14;;;;;;;16.33;8.80;;;6.40;99.90;;;9.66;55.39;97748.84;5060798;28;20548;-43
2023/04/26 06:52:42;;;;;;;13.40;7.13;;;6.50;99.90;;;9.70;55.38;97750.22;5068263;28;20410;-45
2023/04/26 06:55:10;;;;;;;15.77;8.50;;;6.60;99.90;;;9.77;55.40;97756.59;5062957;28;20327;-45
2023/04/26 06:57:37;;;;;;;17.90;10.60;;;6.70;99.90;;;9.84;55.56;97751.47;5064048;28;20045;-45
2023/04/26 07:00:06;;;;;;;16.00;11.60;;;6.80;99.90;;;9.89;56.11;97745.69;5062872;28;20044;-48
2023/04/26 07:02:34;;;;;;;13.33;8.70;;;6.90;99.90;;;9.93;55.85;97745.25;5061216;28;20041;-47
2023/04/26 07:05:01;;;;;;;12.70;8.00;;;7.00;99.90;;;9.98;55.38;97747.44;5060432;28;20498;-45
2023/04/26 07:07:29;;;;;;;12.23;7.80;;;7.10;99.90;;;10.05;55.62;97745.84;5064333;28;20044;-45
2023/04/26 07:09:57;;;;;;;11.57;8.00;;;7.10;99.90;;;10.15;55.38;97748.41;5063923;28;20044;-45
2023/04/26 07:12:25;;;;;;;11.83;7.60;;;7.20;99.90;;;10.20;54.93;97749.59;5060957;28;20049;-46
2023/04/26 07:14:52;;;;;;;23.93;8.03;;;7.20;99.90;;;10.24;54.93;97742.97;5060841;28;20056;-48
2023/04/26 07:17:21;;;;;;;12.63;7.90;;;7.30;99.90;;;10.26;54.67;97745.47;5063730;28;20036;-45
2023/04/26 07:19:48;;;;;;;10.73;7.10;;;7.30;99.90;;;10.33;54.39;97745.69;5063377;28;20424;-48
2023/04/26 07:22:16;;;;;;;14.00;7.03;;;7.30;99.90;;;10.35;54.04;97735.72;5061136;28;20429;-45
2023/04/26 07:24:43;;;;;;;12.60;6.30;;;7.40;99.90;;;10.41;53.56;97737.75;5060538;28;20056;-47
2023/04/26 07:27:11;;;;;;;11.13;7.67;;;7.40;99.90;;;10.47;53.49;97739.81;5062308;28;20053;-45
2023/04/26 07:29:38;;;;;;;9.73;6.17;;;7.40;99.90;;;10.52;52.88;97734.00;5064078;28;20059;-44
2023/04/26 07:32:06;;;;;;;11.03;5.63;;;7.50;99.90;;;10.57;52.63;97731.72;5062565;28;20049;-45
2023/04/26 07:34:34;;;;;;;8.87;4.93;;;7.50;99.90;;;10.60;51.92;97731.38;5060196;28;20080;-46
2023/04/26 07:37:02;;;;;;;9.73;6.67;;;7.60;98.60;;;10.64;52.19;97730.91;5060573;28;20040;-44
2023/04/26 07:39:29;;;;;;;15.00;10.87;;;7.70;98.30;;;10.66;51.82;97733.41;5063693;28;20037;-48
2023/04/26 07:41:57;;;;;;;15.57;8.03;;;7.70;96.00;;;10.70;51.81;97732.13;5063595;28;20055;-45
2023/04/26 07:44:24;;;;;;;11.83;7.47;;;7.80;95.70;;;10.75;51.90;97736.94;5060532;28;20040;-46
2023/04/26 07:46:52;;;;;;;9.20;5.73;;;7.80;95.70;;;10.79;51.43;97723.13;5059833;28;20053;-45
2023/04/26 07:49:19;;;;;;;9.13;6.13;;;7.80;95.50;;;10.86;51.07;97725.16;5062863;28;20072;-48
2023/04/26 07:51:50;;;;;;;14.03;6.40;;;7.80;92.80;;;10.87;50.40;97732.16;5063342;28;20052;-46
2023/04/26 07:54:17;;;;;;;10.53;6.33;;;7.80;90.40;;;10.88;50.82;97731.19;5060491;28;20836;-46
2023/04/26 07:56:45;;;;;;;10.00;5.90;;;7.80;90.80;;;10.91;50.03;97738.84;5059367;28;20123;-45
2023/04/26 07:59:13;;;;;;;13.70;6.40;;;7.90;87.60;;;10.92;50.38;97736.00;5060036;28;20045;-47
2023/04/26 08:01:40;;;;;;;7.93;5.37;;;8.00;86.80;;;11.00;50.45;97741.38;5063106;28;20048;-44
2023/04/26 08:04:08;;;;;;;10.33;6.50;;;8.00;86.90;;;11.00;49.67;97724.56;5060591;28;20040;-46
2023/04/26 08:06:37;;;;;;;10.93;6.83;;;8.00;83.10;;;11.06;49.96;97731.06;5059634;28;20056;-45
2023/04/26 08:09:05;;;;;;;15.23;7.77;;;8.10;85.20;;;11.10;50.04;97733.22;5060260;28;20041;-45
2023/04/26 08:11:32;;;;;;;15.37;7.37;;;8.10;84.60;;;11.18;50.22;97735.09;5062785;28;20067;-45
2023/04/26 08:14:00;;;;;;;17.87;9.33;;;8.20;81.00;;;11.15;49.28;97741.59;5061478;28;20044;-45
2023/04/26 08:16:27;;;;;;;9.23;6.27;;;8.20;82.00;;;11.23;49.32;97740.78;5059473;28;20036;-45
2023/04/26 08:19:01;;;;;;;8.23;6.03;;;8.20;82.10;;;11.31;49.35;97746.13;5057159;28;20049;-46
2023/04/26 08:21:29;;;;;;;10.05;5.55;;;8.40;80.20;;;11.40;49.16;97747.81;5059427;28;20040;-47
2023/04/26 08:23:56;;;;;;;9.27;5.90;;;8.50;79.60;;;11.48;48.70;97746.97;5059570;28;20041;-46
2023/04/26 08:26:24;;;;;;;11.00;5.37;;;8.60;78.50;;;11.54;48.21;97743.66;5060506;28;20092;-49
2023/04/26 08:28:51;;;;;;;10.47;6.30;;;8.60;77.50;;;11.57;47.74;97745.16;5062979;28;20504;-46
2023/04/26 08:31:19;;;;;;;9.17;4.77;;;8.60;74.80;;;11.58;47.59;97745.00;5060271;28;20425;-46
2023/04/26 08:33:46;;;;;;;9.60;5.00;;;8.60;74.40;;;11.64;47.87;97743.50;5059541;28;20052;-44
2023/04/26 08:36:14;;;;;;;9.73;6.60;;;8.60;74.40;;;11.62;46.37;97746.31;5060665;28;20538;-46
2023/04/26 08:38:41;;;;;;;11.27;5.90;;;8.70;68.20;;;11.46;44.61;97746.31;5062727;28;20512;-45
2023/04/26 08:41:15;;;;;;;10.47;5.40;;;8.40;65.70;;;11.43;44.45;97746.63;5061707;28;20055;-45
2023/04/26 08:43:43;;;;;;;;;;;8.20;66.40;;;11.53;45.87;97738.47;5058600;28;20049;-44
2023/04/26 08:46:15;;;;;;;8.80;5.53;;;8.30;64.50;;;11.50;44.85;97746.81;5059264;28;20306;-47
2023/04/26 08:48:44;;;;;;;6.80;4.20;;;8.30;66.50;;;11.56;45.47;97751.50;5062936;28;20049;-46
2023/04/26 08:51:13;;;;;;;10.77;5.40;;;8.40;69.90;;;11.61;44.40;97747.34;5059301;28;20055;-44
2023/04/26 08:53:41;;;;;;;7.27;5.33;;;8.50;65.80;;;11.67;44.91;97739.66;5059182;28;20056;-45
2023/04/26 08:56:11;;;;;;;8.43;5.80;;;8.60;68.40;;;11.76;44.49;97744.81;5058510;28;20045;-46
2023/04/26 08:58:39;;;;;;;10.23;4.40;;;8.70;62.70;;;11.70;43.24;97742.00;5061466;28;20056;-45
2023/04/26 09:01:08;;;;;;;7.80;5.47;;;8.70;64.00;;;11.60;42.63;97743.00;5060603;28;20040;-45
2023/04/26 09:03:36;;;;;;;7.53;4.57;;;8.60;61.10;;;11.73;42.68;97734.50;5057977;28;20049;-47
2023/04/26 09:06:05;;;;;;;8.37;4.97;;;8.70;61.60;;;11.87;43.00;97738.34;5058859;28;20045;-46
2023/04/26 09:08:39;;;;;;;6.90;4.90;;;8.80;64.30;;;12.01;43.40;97740.34;5062538;28;20049;-45
2023/04/26 09:11:06;;;;;;;7.47;4.82;;;9.00;65.50;;;12.12;43.21;97736.53;5060574;28;20052;-45
2023/04/26 09:13:34;;;;;;;6.37;4.07;;;9.10;63.20;;;12.19;43.24;97732.19;5058836;28;20056;-45
2023/04/26 09:16:01;;;;;;;6.67;4.13;;;9.30;63.30;;;12.31;43.17;97731.81;5057331;28;20049;-47
2023/04/26 09:18:32;;;;;;;8.67;4.57;;;9.40;64.10;;;12.48;43.03;97740.63;5049229;28;20044;-45
2023/04/26 09:21:07;;;;;;;6.60;4.07;;;9.60;63.60;;;12.63;42.75;97738.91;5063069;28;20041;-45
2023/04/26 09:23:34;;;;;;;7.77;4.87;;;9.70;61.70;;;12.78;42.77;97736.38;5055984;28;20410;-45
2023/04/26 09:26:21;;;;;;;8.57;4.73;;;9.80;62.50;;;12.78;42.07;97726.50;5062425;28;20045;-46
2023/04/26 09:28:49;;;;;;;12.57;5.10;;;9.80;58.50;;;12.80;42.25;97721.81;5056419;28;20049;-49
2023/04/26 09:31:47;;;;;;;7.93;4.77;;;9.80;63.50;;;13.01;42.92;97717.72;5064781;28;20456;-48
2023/04/26 09:34:16;;;;;;;6.70;4.63;;;10.10;61.70;;;13.24;42.67;97720.44;5064216;28;20056;-46
2023/04/26 09:36:52;;;;;;;9.83;4.73;;;10.40;62.70;;;13.38;42.43;97724.22;5062680;28;20053;-44
2023/04/26 09:39:36;;;;;;;7.37;5.07;;;10.60;59.40;;;13.36;41.58;97719.06;5065176;28;20076;-46
2023/04/26 09:42:05;;;;;;;9.63;5.70;;;10.60;57.50;;;13.46;40.47;97713.47;5065943;28;20111;-46
2023/04/26 09:44:33;;;;;;;7.83;4.90;;;10.50;57.60;;;13.51;41.44;97711.09;5060884;28;20048;-45
2023/04/26 09:47:10;;;;;;;11.57;5.60;;;10.60;61.00;;;13.66;41.96;97713.81;5060494;28;20071;-45
2023/04/26 09:49:50;;;;;;;21.47;6.30;;;10.80;60.80;;;13.84;41.85;97713.53;5054115;28;20049;-47
2023/04/26 09:52:19;;;;;;;8.27;4.83;;;11.00;57.60;;;13.94;41.54;97714.09;5062889;28;20055;-45
2023/04/26 09:54:53;;;;;;;7.33;5.13;;;11.10;59.70;;;14.08;41.07;97715.13;5063131;28;20052;-44
2023/04/26 09:57:22;;;;;;;9.65;5.07;;;11.30;59.40;;;14.20;41.19;97714.72;5061791;28;20047;-46
2023/04/26 09:59:53;;;;;;;9.53;4.80;;;11.40;60.10;;;14.30;40.70;97716.09;5062082;28;20044;-45
2023/04/26 10:02:25;;;;;;;8.63;4.33;;;11.40;58.30;;;14.40;40.51;97713.13;5063609;28;20387;-45
2023/04/26 10:04:55;;;;;;;5.77;4.63;;;11.50;58.00;;;14.48;40.15;97721.09;5065204;28;20386;-45
2023/04/26 10:07:25;;;;;;;7.23;4.47;;;11.60;57.60;;;14.52;40.22;97706.31;5062919;28;20063;-44
2023/04/26 10:09:53;;;;;;;6.67;4.40;;;11.60;56.80;;;14.57;39.84;97706.63;5061942;28;20076;-48
2023/04/26 10:12:22;;;;;;;11.40;4.67;;;11.70;57.10;;;14.61;40.17;97700.91;5064027;28;20053;-47
2023/04/26 10:14:49;;;;;;;6.72;4.78;;;11.80;57.70;;;14.71;39.82;97696.94;5065327;28;20052;-48
2023/04/26 10:17:19;;;;;;;9.80;4.47;;;11.90;57.20;;;14.80;39.73;97705.69;5063602;28;20048;-46
2023/04/26 10:19:51;;;;;;;9.43;4.83;;;12.00;56.40;;;14.85;39.20;97697.06;5061097;28;20037;-45
2023/04/26 10:22:29;;;;;;;7.10;4.60;;;11.90;55.80;;;14.86;38.85;97696.06;5063635;28;20067;-44
2023/04/26 10:24:57;;;;;;;10.18;4.88;;;11.90;53.80;;;14.82;38.63;97705.50;5063771;28;20051;-46
2023/04/26 10:27:43;;;;;;;5.17;3.47;;;11.70;55.20;;;14.76;38.29;97704.41;5061282;28;20040;-45
2023/04/26 10:30:19;;;;;;;5.03;2.78;;;11.70;50.00;;;14.65;37.40;97703.00;5061578;28;20120;-45